LELN/LEN METAR and TAF weather

Enter ICAO airport designator
Station Type Date Time Source
LELN METAR 2022/09/26 09:30 UTC NOAA

LELN 260930Z 09001KT 9999 FEW030 12/06 Q1019


Station Type Date Time Source
LELN Decoded METAR 2022/09/26 09:30 UTC NOAA

Leon / Virgen Del Camino, Spain (LELN) 42-35N 005-39W 914M
Sep 26, 2022 - 05:30 AM EDT / 2022.09.26 0930 UTC
Wind: from the E (090 degrees) at 1 MPH (1 KT):0
Visibility: greater than 7 mile(s):0
Sky conditions: mostly clear
Temperature: 53 F (12 C)
Dew Point: 42 F (6 C)
Relative Humidity: 66%
Pressure (altimeter): 30.09 in. Hg (1019 hPa)
ob: LELN 260930Z 09001KT 9999 FEW030 12/06 Q1019
cycle: 9

Station Type Date Time Source
LELN TAF 2022/09/26 09:27 UTC NOAA

TAF LELN 260800Z 2609/2709 33006KT CAVOK TX18/2615Z TN06/2706Z

Example: see airport list